sensor_id;sensor_type;location;lat;lon;timestamp;pressure;altitude;pressure_sealevel;temperature;humidity
12781;BME280;6454;43.304;24.344;2022-09-02T00:01:35;99937.19;;;22.82;94.27
12781;BME280;6454;43.304;24.344;2022-09-02T00:04:05;99939.97;;;22.82;94.36
12781;BME280;6454;43.304;24.344;2022-09-02T00:06:34;99934.81;;;22.81;94.13
12781;BME280;6454;43.304;24.344;2022-09-02T00:09:03;99939.56;;;22.80;94.08
12781;BME280;6454;43.304;24.344;2022-09-02T00:11:31;99937.94;;;22.79;93.76
12781;BME280;6454;43.304;24.344;2022-09-02T00:14:01;99930.84;;;22.78;93.70
12781;BME280;6454;43.304;24.344;2022-09-02T00:16:29;99911.19;;;22.61;94.05
12781;BME280;6454;43.304;24.344;2022-09-02T00:18:59;99933.59;;;22.78;93.94
12781;BME280;6454;43.304;24.344;2022-09-02T00:21:27;99926.47;;;22.77;93.17
12781;BME280;6454;43.304;24.344;2022-09-02T00:23:56;99928.81;;;22.75;93.43
12781;BME280;6454;43.304;24.344;2022-09-02T00:26:23;99919.66;;;22.71;93.56
12781;BME280;6454;43.304;24.344;2022-09-02T00:28:50;99915.31;;;22.70;94.01
12781;BME280;6454;43.304;24.344;2022-09-02T00:31:18;99918.06;;;22.70;94.60
12781;BME280;6454;43.304;24.344;2022-09-02T00:33:45;99912.91;;;22.69;94.91
12781;BME280;6454;43.304;24.344;2022-09-02T00:36:13;99908.91;;;22.66;94.96
12781;BME280;6454;43.304;24.344;2022-09-02T00:38:40;99909.69;;;22.63;95.20
12781;BME280;6454;43.304;24.344;2022-09-02T00:41:10;99919.47;;;22.61;95.82
12781;BME280;6454;43.304;24.344;2022-09-02T00:43:41;99919.53;;;22.64;95.78
12781;BME280;6454;43.304;24.344;2022-09-02T00:46:10;99915.56;;;22.62;96.25
12781;BME280;6454;43.304;24.344;2022-09-02T00:48:41;99909.19;;;22.61;96.66
12781;BME280;6454;43.304;24.344;2022-09-02T00:51:10;99913.94;;;22.61;96.92
12781;BME280;6454;43.304;24.344;2022-09-02T00:53:40;99905.31;;;22.62;96.75
12781;BME280;6454;43.304;24.344;2022-09-02T00:56:18;99911.19;;;22.61;97.22
12781;BME280;6454;43.304;24.344;2022-09-02T00:58:47;99922.56;;;22.56;97.50
12781;BME280;6454;43.304;24.344;2022-09-02T01:01:15;99916.22;;;22.55;97.94
12781;BME280;6454;43.304;24.344;2022-09-02T01:03:42;99916.22;;;22.55;97.43
12781;BME280;6454;43.304;24.344;2022-09-02T01:06:10;99919.00;;;22.55;97.32
12781;BME280;6454;43.304;24.344;2022-09-02T01:08:42;99916.97;;;22.52;97.42
12781;BME280;6454;43.304;24.344;2022-09-02T01:11:12;99915.81;;;22.53;97.52
12781;BME280;6454;43.304;24.344;2022-09-02T01:13:42;99915.38;;;22.51;97.77
12781;BME280;6454;43.304;24.344;2022-09-02T01:16:13;99916.16;;;22.52;97.25
12781;BME280;6454;43.304;24.344;2022-09-02T01:18:46;99926.75;;;22.46;97.33
12781;BME280;6454;43.304;24.344;2022-09-02T01:21:15;99931.91;;;22.48;97.43
12781;BME280;6454;43.304;24.344;2022-09-02T01:23:45;99927.13;;;22.44;97.85
12781;BME280;6454;43.304;24.344;2022-09-02T01:26:12;99929.88;;;22.44;98.09
12781;BME280;6454;43.304;24.344;2022-09-02T01:28:40;99937.38;;;22.44;98.34
12781;BME280;6454;43.304;24.344;2022-09-02T01:31:06;99941.31;;;22.43;98.16
12781;BME280;6454;43.304;24.344;2022-09-02T01:33:33;99939.72;;;22.42;98.71
12781;BME280;6454;43.304;24.344;2022-09-02T01:36:01;99939.78;;;22.45;98.57
12781;BME280;6454;43.304;24.344;2022-09-02T01:38:29;99935.78;;;22.43;98.99
12781;BME280;6454;43.304;24.344;2022-09-02T01:40:58;99938.16;;;22.44;99.49
12781;BME280;6454;43.304;24.344;2022-09-02T01:43:26;99937.31;;;22.40;100.00
12781;BME280;6454;43.304;24.344;2022-09-02T01:45:55;99913.75;;;22.24;100.00
12781;BME280;6454;43.304;24.344;2022-09-02T01:48:23;99942.78;;;22.37;100.00
12781;BME280;6454;43.304;24.344;2022-09-02T01:50:56;99927.38;;;22.36;100.00
12781;BME280;6454;43.304;24.344;2022-09-02T01:53:23;99927.81;;;22.38;100.00
12781;BME280;6454;43.304;24.344;2022-09-02T01:55:50;99921.47;;;22.37;100.00
12781;BME280;6454;43.304;24.344;2022-09-02T01:58:19;99869.63;;;22.05;100.00
12781;BME280;6454;43.304;24.344;2022-09-02T02:00:46;99911.78;;;22.24;100.00
12781;BME280;6454;43.304;24.344;2022-09-02T02:03:14;99919.03;;;22.32;100.00
12781;BME280;6454;43.304;24.344;2022-09-02T02:05:41;99920.97;;;22.32;100.00
12781;BME280;6454;43.304;24.344;2022-09-02T02:08:08;99918.22;;;22.32;100.00
12781;BME280;6454;43.304;24.344;2022-09-02T02:10:35;99926.09;;;22.30;100.00
12781;BME280;6454;43.304;24.344;2022-09-02T02:13:02;99917.81;;;22.30;100.00
12781;BME280;6454;43.304;24.344;2022-09-02T02:15:31;99919.34;;;22.27;100.00
12781;BME280;6454;43.304;24.344;2022-09-02T02:17:57;99920.56;;;22.30;100.00
12781;BME280;6454;43.304;24.344;2022-09-02T02:20:24;99922.91;;;22.28;100.00
12781;BME280;6454;43.304;24.344;2022-09-02T02:22:51;99911.91;;;22.31;100.00
12781;BME280;6454;43.304;24.344;2022-09-02T02:25:18;99914.22;;;22.29;100.00
12781;BME280;6454;43.304;24.344;2022-09-02T02:27:45;99910.31;;;22.30;100.00
12781;BME280;6454;43.304;24.344;2022-09-02T02:30:15;99909.50;;;22.30;100.00
12781;BME280;6454;43.304;24.344;2022-09-02T02:32:44;99901.53;;;22.25;100.00
12781;BME280;6454;43.304;24.344;2022-09-02T02:35:13;99907.47;;;22.27;100.00
12781;BME280;6454;43.304;24.344;2022-09-02T02:37:40;99905.53;;;22.27;100.00
12781;BME280;6454;43.304;24.344;2022-09-02T02:40:08;99874.09;;;22.13;100.00
12781;BME280;6454;43.304;24.344;2022-09-02T02:42:36;99887.41;;;22.30;100.00
12781;BME280;6454;43.304;24.344;2022-09-02T02:45:04;99899.69;;;22.32;100.00
12781;BME280;6454;43.304;24.344;2022-09-02T02:47:36;99894.88;;;22.29;100.00
12781;BME280;6454;43.304;24.344;2022-09-02T02:50:07;99909.94;;;22.32;100.00
12781;BME280;6454;43.304;24.344;2022-09-02T02:52:34;99883.97;;;22.14;100.00
12781;BME280;6454;43.304;24.344;2022-09-02T02:55:02;99907.16;;;22.32;100.00
12781;BME280;6454;43.304;24.344;2022-09-02T02:57:31;99913.91;;;22.34;100.00
12781;BME280;6454;43.304;24.344;2022-09-02T03:00:03;99916.25;;;22.32;100.00
12781;BME280;6454;43.304;24.344;2022-09-02T03:02:30;99917.00;;;22.29;100.00
12781;BME280;6454;43.304;24.344;2022-09-02T03:04:58;99916.25;;;22.32;100.00
12781;BME280;6454;43.304;24.344;2022-09-02T03:07:27;99917.81;;;22.30;100.00
12781;BME280;6454;43.304;24.344;2022-09-02T03:09:54;99917.38;;;22.28;100.00
12781;BME280;6454;43.304;24.344;2022-09-02T03:12:21;99920.16;;;22.28;100.00
12781;BME280;6454;43.304;24.344;2022-09-02T03:14:48;99924.44;;;22.25;100.00
12781;BME280;6454;43.304;24.344;2022-09-02T03:17:15;99923.56;;;22.21;100.00
12781;BME280;6454;43.304;24.344;2022-09-02T03:19:42;99925.09;;;22.19;100.00
12781;BME280;6454;43.304;24.344;2022-09-02T03:22:09;99928.25;;;22.17;100.00
12781;BME280;6454;43.304;24.344;2022-09-02T03:24:38;99931.44;;;22.19;100.00
12781;BME280;6454;43.304;24.344;2022-09-02T03:27:04;99924.69;;;22.17;100.00
12781;BME280;6454;43.304;24.344;2022-09-02T03:29:31;99933.69;;;22.14;100.00
12781;BME280;6454;43.304;24.344;2022-09-02T03:31:59;99933.69;;;22.14;100.00
12781;BME280;6454;43.304;24.344;2022-09-02T03:34:26;99934.47;;;22.11;100.00
12781;BME280;6454;43.304;24.344;2022-09-02T03:36:53;99941.22;;;22.13;100.00
12781;BME280;6454;43.304;24.344;2022-09-02T03:39:19;99936.84;;;22.12;100.00
12781;BME280;6454;43.304;24.344;2022-09-02T03:41:48;99933.66;;;22.10;100.00
12781;BME280;6454;43.304;24.344;2022-09-02T03:44:15;99914.13;;;22.00;100.00
12781;BME280;6454;43.304;24.344;2022-09-02T03:46:42;99939.19;;;22.10;100.00
12781;BME280;6454;43.304;24.344;2022-09-02T03:49:09;99937.56;;;22.09;100.00
12781;BME280;6454;43.304;24.344;2022-09-02T03:51:39;99943.47;;;22.08;100.00
12781;BME280;6454;43.304;24.344;2022-09-02T03:54:07;99923.13;;;21.97;100.00
12781;BME280;6454;43.304;24.344;2022-09-02T03:56:35;99944.75;;;22.14;100.00
12781;BME280;6454;43.304;24.344;2022-09-02T03:59:03;99947.91;;;22.12;100.00
12781;BME280;6454;43.304;24.344;2022-09-02T04:01:30;99952.25;;;22.13;100.00
12781;BME280;6454;43.304;24.344;2022-09-02T04:03:58;99956.91;;;22.09;100.00
12781;BME280;6454;43.304;24.344;2022-09-02T04:06:25;99956.91;;;22.09;100.00
12781;BME280;6454;43.304;24.344;2022-09-02T04:08:52;99948.63;;;22.09;100.00
12781;BME280;6454;43.304;24.344;2022-09-02T04:11:20;99950.59;;;22.09;100.00
12781;BME280;6454;43.304;24.344;2022-09-02T04:13:49;99947.81;;;22.09;100.00
12781;BME280;6454;43.304;24.344;2022-09-02T04:16:20;99954.56;;;22.11;100.00
12781;BME280;6454;43.304;24.344;2022-09-02T04:18:51;99956.47;;;22.07;100.00
12781;BME280;6454;43.304;24.344;2022-09-02T04:21:18;99957.72;;;22.10;100.00
12781;BME280;6454;43.304;24.344;2022-09-02T04:23:46;99965.56;;;22.08;100.00
12781;BME280;6454;43.304;24.344;2022-09-02T04:26:14;99959.63;;;22.06;100.00
12781;BME280;6454;43.304;24.344;2022-09-02T04:28:42;99976.56;;;22.04;100.00
12781;BME280;6454;43.304;24.344;2022-09-02T04:31:12;99977.59;;;21.96;100.00
12781;BME280;6454;43.304;24.344;2022-09-02T04:33:40;99994.34;;;22.07;100.00
12781;BME280;6454;43.304;24.344;2022-09-02T04:36:09;100001.78;;;22.03;100.00
12781;BME280;6454;43.304;24.344;2022-09-02T04:38:37;100003.75;;;22.02;100.00
12781;BME280;6454;43.304;24.344;2022-09-02T04:41:06;100008.34;;;21.95;100.00
12781;BME280;6454;43.304;24.344;2022-09-02T04:43:33;100019.81;;;21.97;100.00
12781;BME280;6454;43.304;24.344;2022-09-02T04:46:04;100017.50;;;21.99;100.00
12781;BME280;6454;43.304;24.344;2022-09-02T04:48:31;100027.81;;;22.02;100.00
12781;BME280;6454;43.304;24.344;2022-09-02T04:51:04;100018.75;;;22.01;100.00
12781;BME280;6454;43.304;24.344;2022-09-02T04:53:31;100017.56;;;22.02;100.00
12781;BME280;6454;43.304;24.344;2022-09-02T04:55:58;100014.88;;;22.06;100.00
12781;BME280;6454;43.304;24.344;2022-09-02T04:58:25;100011.72;;;22.07;100.00
12781;BME280;6454;43.304;24.344;2022-09-02T05:00:53;100014.13;;;22.09;100.00
12781;BME280;6454;43.304;24.344;2022-09-02T05:03:20;99985.81;;;21.93;100.00
12781;BME280;6454;43.304;24.344;2022-09-02T05:05:57;100016.59;;;22.14;100.00
12781;BME280;6454;43.304;24.344;2022-09-02T05:08:26;100009.09;;;22.14;100.00
12781;BME280;6454;43.304;24.344;2022-09-02T05:10:53;100011.06;;;22.14;100.00
12781;BME280;6454;43.304;24.344;2022-09-02T05:13:20;100018.63;;;22.17;100.00
12781;BME280;6454;43.304;24.344;2022-09-02T05:15:48;100021.03;;;22.18;100.00
12781;BME280;6454;43.304;24.344;2022-09-02T05:18:15;100012.97;;;22.10;100.00
12781;BME280;6454;43.304;24.344;2022-09-02T05:20:42;100021.81;;;22.19;100.00
12781;BME280;6454;43.304;24.344;2022-09-02T05:23:09;100024.56;;;22.19;100.00
12781;BME280;6454;43.304;24.344;2022-09-02T05:25:38;100021.81;;;22.19;100.00
12781;BME280;6454;43.304;24.344;2022-09-02T05:28:07;100013.16;;;22.20;100.00
12781;BME280;6454;43.304;24.344;2022-09-02T05:30:34;100023.50;;;22.23;100.00
12781;BME280;6454;43.304;24.344;2022-09-02T05:33:01;100025.88;;;22.25;100.00
12781;BME280;6454;43.304;24.344;2022-09-02T05:35:28;100031.03;;;22.26;100.00
12781;BME280;6454;43.304;24.344;2022-09-02T05:37:56;100023.13;;;22.25;100.00
12781;BME280;6454;43.304;24.344;2022-09-02T05:40:23;100023.50;;;22.23;100.00
12781;BME280;6454;43.304;24.344;2022-09-02T05:42:51;100035.41;;;22.27;100.00
12781;BME280;6454;43.304;24.344;2022-09-02T05:45:18;100030.28;;;22.29;100.00
12781;BME280;6454;43.304;24.344;2022-09-02T05:47:48;100033.44;;;22.28;100.00
12781;BME280;6454;43.304;24.344;2022-09-02T05:50:15;100029.88;;;22.27;100.00
12781;BME280;6454;43.304;24.344;2022-09-02T05:52:42;100018.44;;;22.29;100.00
12781;BME280;6454;43.304;24.344;2022-09-02T05:55:10;100015.31;;;22.30;100.00
12781;BME280;6454;43.304;24.344;2022-09-02T05:57:37;100010.59;;;22.31;100.00
12781;BME280;6454;43.304;24.344;2022-09-02T06:00:06;100018.50;;;22.32;100.00
12781;BME280;6454;43.304;24.344;2022-09-02T06:02:33;100021.34;;;22.36;100.00
12781;BME280;6454;43.304;24.344;2022-09-02T06:05:00;100023.34;;;22.39;100.00
12781;BME280;6454;43.304;24.344;2022-09-02T06:07:27;100025.78;;;22.40;100.00
12781;BME280;6454;43.304;24.344;2022-09-02T06:09:54;100021.06;;;22.41;100.00
12781;BME280;6454;43.304;24.344;2022-09-02T06:12:21;100016.69;;;22.40;100.00
12781;BME280;6454;43.304;24.344;2022-09-02T06:14:48;100019.81;;;22.38;100.00
12781;BME280;6454;43.304;24.344;2022-09-02T06:17:16;100015.44;;;22.37;100.00
12781;BME280;6454;43.304;24.344;2022-09-02T06:19:43;100022.94;;;22.37;100.00
12781;BME280;6454;43.304;24.344;2022-09-02T06:34:39;100038.31;;;23.06;100.00
12781;BME280;6454;43.304;24.344;2022-09-02T06:37:06;100045.50;;;22.84;100.00
12781;BME280;6454;43.304;24.344;2022-09-02T06:39:32;100043.03;;;22.79;100.00
12781;BME280;6454;43.304;24.344;2022-09-02T06:42:00;100046.53;;;22.76;100.00
12781;BME280;6454;43.304;24.344;2022-09-02T06:44:27;100045.31;;;22.74;100.00
12781;BME280;6454;43.304;24.344;2022-09-02T06:46:56;100049.91;;;22.66;100.00
12781;BME280;6454;43.304;24.344;2022-09-02T06:49:24;100050.19;;;22.61;100.00
12781;BME280;6454;43.304;24.344;2022-09-02T06:51:54;100054.50;;;22.59;100.00
12781;BME280;6454;43.304;24.344;2022-09-02T06:54:22;100022.09;;;22.33;100.00
12781;BME280;6454;43.304;24.344;2022-09-02T06:56:50;100047.00;;;22.59;100.00
12781;BME280;6454;43.304;24.344;2022-09-02T06:59:17;100061.63;;;22.60;100.00
12781;BME280;6454;43.304;24.344;2022-09-02T07:01:45;100055.69;;;22.58;100.00
12781;BME280;6454;43.304;24.344;2022-09-02T07:04:12;100063.97;;;22.58;100.00
12781;BME280;6454;43.304;24.344;2022-09-02T07:06:58;100074.22;;;22.57;100.00
12781;BME280;6454;43.304;24.344;2022-09-02T07:09:26;100069.50;;;22.58;100.00
12781;BME280;6454;43.304;24.344;2022-09-02T07:11:56;100063.47;;;22.52;100.00
12781;BME280;6454;43.304;24.344;2022-09-02T07:14:24;100065.09;;;22.53;100.00
12781;BME280;6454;43.304;24.344;2022-09-02T07:16:54;100062.94;;;22.43;100.00
12781;BME280;6454;43.304;24.344;2022-09-02T07:19:22;100043.38;;;22.32;100.00
12781;BME280;6454;43.304;24.344;2022-09-02T07:21:49;100072.97;;;22.51;100.00
12781;BME280;6454;43.304;24.344;2022-09-02T07:24:18;100043.94;;;22.41;100.00
12781;BME280;6454;43.304;24.344;2022-09-02T07:26:45;100075.84;;;22.58;100.00
12781;BME280;6454;43.304;24.344;2022-09-02T07:29:12;100072.63;;;22.56;100.00
12781;BME280;6454;43.304;24.344;2022-09-02T07:31:42;100076.19;;;22.57;100.00
12781;BME280;6454;43.304;24.344;2022-09-02T07:34:10;100076.56;;;22.55;100.00
12781;BME280;6454;43.304;24.344;2022-09-02T07:36:39;100075.78;;;22.55;100.00
12781;BME280;6454;43.304;24.344;2022-09-02T07:39:08;100074.22;;;22.57;100.00
12781;BME280;6454;43.304;24.344;2022-09-02T07:41:38;100074.22;;;22.57;100.00
12781;BME280;6454;43.304;24.344;2022-09-02T07:44:06;100075.38;;;22.56;100.00
12781;BME280;6454;43.304;24.344;2022-09-02T07:46:33;100077.38;;;22.56;100.00
12781;BME280;6454;43.304;24.344;2022-09-02T07:49:03;100070.63;;;22.53;100.00
12781;BME280;6454;43.304;24.344;2022-09-02T07:51:31;100068.59;;;22.50;100.00
12781;BME280;6454;43.304;24.344;2022-09-02T07:53:59;100070.84;;;22.44;100.00
12781;BME280;6454;43.304;24.344;2022-09-02T07:56:26;100071.66;;;22.45;100.00
12781;BME280;6454;43.304;24.344;2022-09-02T07:58:55;100073.31;;;22.50;100.00
12781;BME280;6454;43.304;24.344;2022-09-02T08:01:21;100079.56;;;22.46;100.00
12781;BME280;6454;43.304;24.344;2022-09-02T08:03:49;100078.03;;;22.49;100.00
12781;BME280;6454;43.304;24.344;2022-09-02T08:06:17;100076.50;;;22.52;100.00
12781;BME280;6454;43.304;24.344;2022-09-02T08:08:45;100078.47;;;22.51;100.00
12781;BME280;6454;43.304;24.344;2022-09-02T08:11:12;100087.13;;;22.50;100.00
12781;BME280;6454;43.304;24.344;2022-09-02T08:13:39;100079.66;;;22.50;100.00
12781;BME280;6454;43.304;24.344;2022-09-02T08:16:07;100078.09;;;22.53;100.00
12781;BME280;6454;43.304;24.344;2022-09-02T08:18:34;100080.06;;;22.52;100.00
12781;BME280;6454;43.304;24.344;2022-09-02T08:21:01;100078.47;;;22.51;100.00
12781;BME280;6454;43.304;24.344;2022-09-02T08:23:28;100077.31;;;22.52;100.00
12781;BME280;6454;43.304;24.344;2022-09-02T08:25:57;100086.91;;;22.58;100.00
12781;BME280;6454;43.304;24.344;2022-09-02T08:28:24;100089.09;;;22.49;100.00
12781;BME280;6454;43.304;24.344;2022-09-02T08:30:52;100089.97;;;22.53;100.00
12781;BME280;6454;43.304;24.344;2022-09-02T08:33:20;100066.00;;;22.38;100.00
12781;BME280;6454;43.304;24.344;2022-09-02T08:35:47;100098.31;;;22.57;100.00
12781;BME280;6454;43.304;24.344;2022-09-02T08:38:14;100093.31;;;22.62;100.00
12781;BME280;6454;43.304;24.344;2022-09-02T08:40:41;100094.44;;;22.61;100.00
12781;BME280;6454;43.304;24.344;2022-09-02T08:43:25;100086.63;;;22.63;100.00
12781;BME280;6454;43.304;24.344;2022-09-02T08:45:57;100094.53;;;22.65;100.00
12781;BME280;6454;43.304;24.344;2022-09-02T08:48:33;100086.97;;;22.62;100.00
12781;BME280;6454;43.304;24.344;2022-09-02T08:51:06;100085.44;;;22.64;100.00
12781;BME280;6454;43.304;24.344;2022-09-02T08:53:37;100086.69;;;22.67;100.00
12781;BME280;6454;43.304;24.344;2022-09-02T08:56:08;100081.09;;;22.63;100.00
12781;BME280;6454;43.304;24.344;2022-09-02T08:58:39;100077.41;;;22.59;100.00
12781;BME280;6454;43.304;24.344;2022-09-02T09:01:11;100013.53;;;22.19;100.00
12781;BME280;6454;43.304;24.344;2022-09-02T09:04:03;100079.19;;;22.67;100.00
12781;BME280;6454;43.304;24.344;2022-09-02T09:06:40;100072.13;;;22.70;100.00
12781;BME280;6454;43.304;24.344;2022-09-02T09:09:14;100075.38;;;22.75;100.00
12781;BME280;6454;43.304;24.344;2022-09-02T09:11:49;100076.22;;;22.79;100.00
12781;BME280;6454;43.304;24.344;2022-09-02T09:14:25;100075.81;;;22.77;100.00
12781;BME280;6454;43.304;24.344;2022-09-02T09:16:57;100073.47;;;22.79;100.00
12781;BME280;6454;43.304;24.344;2022-09-02T09:19:36;100069.97;;;22.82;100.00
12781;BME280;6454;43.304;24.344;2022-09-02T09:22:04;100067.13;;;22.79;100.00
12781;BME280;6454;43.304;24.344;2022-09-02T09:24:35;100070.75;;;22.83;100.00
12781;BME280;6454;43.304;24.344;2022-09-02T09:27:06;100066.03;;;22.83;100.00
12781;BME280;6454;43.304;24.344;2022-09-02T09:29:35;100068.50;;;22.88;100.00
12781;BME280;6454;43.304;24.344;2022-09-02T09:32:03;100075.13;;;22.84;100.00
12781;BME280;6454;43.304;24.344;2022-09-02T09:34:56;100072.09;;;22.92;100.00
12781;BME280;6454;43.304;24.344;2022-09-02T09:37:31;100084.28;;;22.88;100.00
12781;BME280;6454;43.304;24.344;2022-09-02T09:39:58;100081.94;;;22.90;100.00
12781;BME280;6454;43.304;24.344;2022-09-02T09:42:31;100079.88;;;22.83;100.00
12781;BME280;6454;43.304;24.344;2022-09-02T09:44:58;100081.69;;;22.98;100.00
12781;BME280;6454;43.304;24.344;2022-09-02T09:47:25;100084.47;;;22.98;100.00
12781;BME280;6454;43.304;24.344;2022-09-02T09:50:09;100077.31;;;22.97;100.00
12781;BME280;6454;43.304;24.344;2022-09-02T09:52:37;100083.59;;;22.94;100.00
12781;BME280;6454;43.304;24.344;2022-09-02T09:55:11;100046.13;;;22.74;100.00
12781;BME280;6454;43.304;24.344;2022-09-02T09:57:40;100091.53;;;22.96;100.00
12781;BME280;6454;43.304;24.344;2022-09-02T10:00:14;100084.47;;;22.76;100.00
12781;BME280;6454;43.304;24.344;2022-09-02T10:02:46;100084.28;;;22.65;100.00
12781;BME280;6454;43.304;24.344;2022-09-02T10:05:30;100089.09;;;22.68;100.00
12781;BME280;6454;43.304;24.344;2022-09-02T10:07:59;100087.22;;;22.53;100.00
12781;BME280;6454;43.304;24.344;2022-09-02T10:10:28;100084.75;;;22.48;100.00
12781;BME280;6454;43.304;24.344;2022-09-02T10:12:58;100054.75;;;22.27;100.00
12781;BME280;6454;43.304;24.344;2022-09-02T10:15:35;100082.28;;;22.24;100.00
12781;BME280;6454;43.304;24.344;2022-09-02T10:18:14;100077.00;;;22.15;100.00
12781;BME280;6454;43.304;24.344;2022-09-02T10:20:52;100070.03;;;22.02;100.00
12781;BME280;6454;43.304;24.344;2022-09-02T10:23:39;100071.94;;;21.98;100.00
12781;BME280;6454;43.304;24.344;2022-09-02T10:26:21;100081.19;;;22.06;100.00
12781;BME280;6454;43.304;24.344;2022-09-02T10:32:03;100072.47;;;22.04;100.00
12781;BME280;6454;43.304;24.344;2022-09-02T10:34:40;100075.28;;;22.07;100.00
12781;BME280;6454;43.304;24.344;2022-09-02T10:37:16;100072.88;;;22.06;100.00
12781;BME280;6454;43.304;24.344;2022-09-02T10:40:02;100074.53;;;22.10;100.00
12781;BME280;6454;43.304;24.344;2022-09-02T11:02:06;100084.13;;;22.58;100.00
12781;BME280;6454;43.304;24.344;2022-09-02T11:04:38;100079.69;;;22.54;100.00
12781;BME280;6454;43.304;24.344;2022-09-02T11:07:09;100086.50;;;22.37;100.00
12781;BME280;6454;43.304;24.344;2022-09-02T11:09:41;100090.25;;;22.25;100.00
12781;BME280;6454;43.304;24.344;2022-09-02T11:12:14;100073.16;;;22.20;100.00
12781;BME280;6454;43.304;24.344;2022-09-02T11:14:54;100076.22;;;22.15;100.00
12781;BME280;6454;43.304;24.344;2022-09-02T11:17:31;100069.03;;;22.10;100.00
12781;BME280;6454;43.304;24.344;2022-09-02T11:20:07;100069.88;;;22.14;100.00
12781;BME280;6454;43.304;24.344;2022-09-02T11:22:41;100069.31;;;22.05;100.00
12781;BME280;6454;43.304;24.344;2022-09-02T11:25:13;100059.50;;;22.08;100.00
12781;BME280;6454;43.304;24.344;2022-09-02T11:27:45;100049.19;;;22.05;100.00
12781;BME280;6454;43.304;24.344;2022-09-02T11:30:16;100062.84;;;21.98;100.00
12781;BME280;6454;43.304;24.344;2022-09-02T11:32:51;100059.38;;;22.01;100.00
12781;BME280;6454;43.304;24.344;2022-09-02T11:35:23;100026.84;;;21.75;100.00
12781;BME280;6454;43.304;24.344;2022-09-02T11:37:56;100056.09;;;21.95;100.00
12781;BME280;6454;43.304;24.344;2022-09-02T11:40:27;100060.38;;;21.93;100.00
12781;BME280;6454;43.304;24.344;2022-09-02T11:43:03;100061.25;;;21.97;100.00
12781;BME280;6454;43.304;24.344;2022-09-02T11:52:16;100047.94;;;21.83;100.00
12781;BME280;6454;43.304;24.344;2022-09-02T11:55:00;100048.28;;;21.81;100.00
12781;BME280;6454;43.304;24.344;2022-09-02T11:57:30;100044.78;;;21.84;100.00
12781;BME280;6454;43.304;24.344;2022-09-02T12:00:08;100050.31;;;21.84;100.00
12781;BME280;6454;43.304;24.344;2022-09-02T12:02:40;100047.72;;;21.92;100.00
12781;BME280;6454;43.304;24.344;2022-09-02T12:11:41;100042.50;;;21.87;100.00
12781;BME280;6454;43.304;24.344;2022-09-02T12:14:11;100041.22;;;21.84;100.00
12781;BME280;6454;43.304;24.344;2022-09-02T12:17:02;100048.91;;;21.91;100.00
12781;BME280;6454;43.304;24.344;2022-09-02T12:19:41;100044.66;;;21.97;100.00
12781;BME280;6454;43.304;24.344;2022-09-02T12:22:25;100045.50;;;21.81;100.00
12781;BME280;6454;43.304;24.344;2022-09-02T12:24:54;100042.75;;;21.81;100.00
12781;BME280;6454;43.304;24.344;2022-09-02T12:27:24;100034.03;;;21.79;100.00
12781;BME280;6454;43.304;24.344;2022-09-02T12:29:52;100026.28;;;21.66;100.00
12781;BME280;6454;43.304;24.344;2022-09-02T12:35:49;100035.66;;;21.80;100.00
12781;BME280;6454;43.304;24.344;2022-09-02T12:38:23;100031.16;;;21.92;100.00
12781;BME280;6454;43.304;24.344;2022-09-02T12:43:47;100022.16;;;21.95;100.00
12781;BME280;6454;43.304;24.344;2022-09-02T12:46:20;100029.63;;;21.94;100.00
12781;BME280;6454;43.304;24.344;2022-09-02T12:48:57;100006.25;;;21.88;100.00
12781;BME280;6454;43.304;24.344;2022-09-02T12:51:53;100032.22;;;22.06;100.00
12781;BME280;6454;43.304;24.344;2022-09-02T12:54:26;100025.97;;;22.09;100.00
12781;BME280;6454;43.304;24.344;2022-09-02T12:56:56;100030.84;;;22.16;100.00
12781;BME280;6454;43.304;24.344;2022-09-02T12:59:28;100033.69;;;22.00;100.00
12781;BME280;6454;43.304;24.344;2022-09-02T13:02:13;100030.09;;;21.96;100.00
12781;BME280;6454;43.304;24.344;2022-09-02T13:04:49;100035.06;;;22.10;100.00
12781;BME280;6454;43.304;24.344;2022-09-02T13:07:51;100023.72;;;22.15;100.00
12781;BME280;6454;43.304;24.344;2022-09-02T13:10:55;100023.13;;;22.25;100.00
12781;BME280;6454;43.304;24.344;2022-09-02T13:13:53;100012.06;;;22.25;100.00
12781;BME280;6454;43.304;24.344;2022-09-02T13:16:36;100016.72;;;22.21;100.00
12781;BME280;6454;43.304;24.344;2022-09-02T13:22:27;100018.31;;;22.22;100.00
12781;BME280;6454;43.304;24.344;2022-09-02T13:25:39;100012.66;;;22.15;100.00
12781;BME280;6454;43.304;24.344;2022-09-02T13:28:48;100016.66;;;22.17;100.00
12781;BME280;6454;43.304;24.344;2022-09-02T13:31:19;100022.88;;;22.11;100.00
12781;BME280;6454;43.304;24.344;2022-09-02T13:33:46;100020.22;;;22.18;100.00
12781;BME280;6454;43.304;24.344;2022-09-02T13:36:23;100029.50;;;22.29;100.00
12781;BME280;6454;43.304;24.344;2022-09-02T13:38:52;100014.44;;;22.26;100.00
12781;BME280;6454;43.304;24.344;2022-09-02T13:41:31;100012.06;;;22.25;100.00
12781;BME280;6454;43.304;24.344;2022-09-02T13:44:05;100017.59;;;22.25;100.00
12781;BME280;6454;43.304;24.344;2022-09-02T13:46:42;100021.97;;;22.26;100.00
12781;BME280;6454;43.304;24.344;2022-09-02T13:49:20;100017.66;;;22.28;100.00
12781;BME280;6454;43.304;24.344;2022-09-02T13:51:48;100018.13;;;22.34;100.00
12781;BME280;6454;43.304;24.344;2022-09-02T13:54:25;100002.84;;;22.40;100.00
12781;BME280;6454;43.304;24.344;2022-09-02T13:56:56;100013.19;;;22.43;100.00
12781;BME280;6454;43.304;24.344;2022-09-02T13:59:34;100010.75;;;22.41;100.00
12781;BME280;6454;43.304;24.344;2022-09-02T14:02:23;100006.03;;;22.42;100.00